sensor_id;sensor_type;location;lat;lon;timestamp;pressure;altitude;pressure_sealevel;temperature;humidity
60817;BME280;51921;51.518;-3.188;2022-09-17T00:00:05;102066.84;;;9.09;56.44
60817;BME280;51921;51.518;-3.188;2022-09-17T00:02:29;102067.23;;;8.45;55.65
60817;BME280;51921;51.518;-3.188;2022-09-17T00:04:55;102060.44;;;8.96;54.97
60817;BME280;51921;51.518;-3.188;2022-09-17T00:07:20;102059.79;;;7.59;57.52
60817;BME280;51921;51.518;-3.188;2022-09-17T00:09:46;102058.46;;;8.58;55.64
60817;BME280;51921;51.518;-3.188;2022-09-17T00:12:12;102058.81;;;9.55;52.79
60817;BME280;51921;51.518;-3.188;2022-09-17T00:14:37;102058.55;;;10.90;49.21
60817;BME280;51921;51.518;-3.188;2022-09-17T00:17:03;102059.88;;;10.34;50.33
60817;BME280;51921;51.518;-3.188;2022-09-17T00:19:28;102058.27;;;10.77;49.21
60817;BME280;51921;51.518;-3.188;2022-09-17T00:21:54;102061.68;;;10.37;49.68
60817;BME280;51921;51.518;-3.188;2022-09-17T00:24:19;102065.30;;;10.93;48.50
60817;BME280;51921;51.518;-3.188;2022-09-17T00:26:45;102064.54;;;10.78;48.85
60817;BME280;51921;51.518;-3.188;2022-09-17T00:29:11;102068.23;;;10.63;48.38
60817;BME280;51921;51.518;-3.188;2022-09-17T00:31:36;102069.46;;;9.68;50.47
60817;BME280;51921;51.518;-3.188;2022-09-17T00:34:03;102070.13;;;11.26;48.45
60817;BME280;51921;51.518;-3.188;2022-09-17T00:36:27;102078.68;;;10.17;50.86
60817;BME280;51921;51.518;-3.188;2022-09-17T00:38:55;102084.31;;;9.68;52.61
60817;BME280;51921;51.518;-3.188;2022-09-17T00:41:18;102082.80;;;9.26;54.75
60817;BME280;51921;51.518;-3.188;2022-09-17T00:43:45;102083.86;;;8.85;54.85
60817;BME280;51921;51.518;-3.188;2022-09-17T00:46:17;102072.49;;;9.04;55.69
60817;BME280;51921;51.518;-3.188;2022-09-17T00:48:35;102067.48;;;7.06;60.54
60817;BME280;51921;51.518;-3.188;2022-09-17T00:51:00;102064.95;;;7.55;60.43
60817;BME280;51921;51.518;-3.188;2022-09-17T00:53:26;102072.25;;;9.32;54.65
60817;BME280;51921;51.518;-3.188;2022-09-17T00:55:56;102076.03;;;9.01;55.24
60817;BME280;51921;51.518;-3.188;2022-09-17T00:58:18;102076.93;;;9.82;53.92
60817;BME280;51921;51.518;-3.188;2022-09-17T01:00:43;102068.51;;;8.44;56.91
60817;BME280;51921;51.518;-3.188;2022-09-17T01:03:08;102068.92;;;7.70;59.62
60817;BME280;51921;51.518;-3.188;2022-09-17T01:05:41;102067.33;;;8.06;58.79
60817;BME280;51921;51.518;-3.188;2022-09-17T01:08:07;102077.70;;;8.69;56.83
60817;BME280;51921;51.518;-3.188;2022-09-17T01:10:37;102081.46;;;9.33;55.20
60817;BME280;51921;51.518;-3.188;2022-09-17T01:13:01;102080.98;;;10.19;52.16
60817;BME280;51921;51.518;-3.188;2022-09-17T01:15:25;102077.64;;;10.34;51.25
60817;BME280;51921;51.518;-3.188;2022-09-17T01:17:48;102081.03;;;10.78;50.32
60817;BME280;51921;51.518;-3.188;2022-09-17T01:22:36;102084.71;;;10.61;49.85
60817;BME280;51921;51.518;-3.188;2022-09-17T01:25:10;102081.57;;;10.59;49.19
60817;BME280;51921;51.518;-3.188;2022-09-17T01:30:02;102082.27;;;11.23;47.32
60817;BME280;51921;51.518;-3.188;2022-09-17T01:32:18;102082.21;;;11.37;47.55
60817;BME280;51921;51.518;-3.188;2022-09-17T01:34:46;102079.38;;;10.56;49.08
60817;BME280;51921;51.518;-3.188;2022-09-17T01:37:10;102081.64;;;10.51;49.85
60817;BME280;51921;51.518;-3.188;2022-09-17T01:39:37;102082.40;;;10.64;49.44
60817;BME280;51921;51.518;-3.188;2022-09-17T01:42:04;102089.33;;;11.10;48.74
60817;BME280;51921;51.518;-3.188;2022-09-17T01:44:27;102086.99;;;10.31;51.19
60817;BME280;51921;51.518;-3.188;2022-09-17T01:46:50;102082.62;;;9.54;53.88
60817;BME280;51921;51.518;-3.188;2022-09-17T01:49:14;102082.42;;;10.06;52.62
60817;BME280;51921;51.518;-3.188;2022-09-17T01:51:40;102084.50;;;9.44;53.53
60817;BME280;51921;51.518;-3.188;2022-09-17T01:54:06;102082.89;;;9.26;54.74
60817;BME280;51921;51.518;-3.188;2022-09-17T01:56:34;102084.56;;;10.34;52.98
60817;BME280;51921;51.518;-3.188;2022-09-17T01:58:59;102079.95;;;8.99;55.16
60817;BME280;51921;51.518;-3.188;2022-09-17T02:01:23;102084.92;;;9.97;53.65
60817;BME280;51921;51.518;-3.188;2022-09-17T02:03:51;102085.70;;;10.14;53.61
60817;BME280;51921;51.518;-3.188;2022-09-17T02:06:15;102087.02;;;9.75;53.95
60817;BME280;51921;51.518;-3.188;2022-09-17T02:08:42;102086.22;;;10.66;53.34
60817;BME280;51921;51.518;-3.188;2022-09-17T02:11:06;102087.04;;;9.19;55.49
60817;BME280;51921;51.518;-3.188;2022-09-17T02:13:33;102086.78;;;8.66;55.99
60817;BME280;51921;51.518;-3.188;2022-09-17T02:16:00;102086.18;;;10.11;53.06
60817;BME280;51921;51.518;-3.188;2022-09-17T02:18:25;102079.83;;;10.03;52.37
60817;BME280;51921;51.518;-3.188;2022-09-17T02:20:49;102077.14;;;10.50;51.31
60817;BME280;51921;51.518;-3.188;2022-09-17T02:23:15;102078.63;;;9.80;52.43
60817;BME280;51921;51.518;-3.188;2022-09-17T02:25:39;102078.94;;;9.67;52.59
60817;BME280;51921;51.518;-3.188;2022-09-17T02:28:03;102076.18;;;8.87;54.25
60817;BME280;51921;51.518;-3.188;2022-09-17T02:30:27;102070.29;;;10.21;51.52
60817;BME280;51921;51.518;-3.188;2022-09-17T02:32:53;102072.31;;;11.14;49.53
60817;BME280;51921;51.518;-3.188;2022-09-17T02:35:18;102074.59;;;10.37;52.98
60817;BME280;51921;51.518;-3.188;2022-09-17T02:37:44;102073.51;;;9.23;56.26
60817;BME280;51921;51.518;-3.188;2022-09-17T02:40:11;102072.99;;;8.12;57.87
60817;BME280;51921;51.518;-3.188;2022-09-17T02:42:44;102077.03;;;8.18;58.94
60817;BME280;51921;51.518;-3.188;2022-09-17T02:45:05;102077.47;;;7.81;58.62
60817;BME280;51921;51.518;-3.188;2022-09-17T02:47:36;102077.07;;;7.87;58.11
60817;BME280;51921;51.518;-3.188;2022-09-17T02:50:03;102076.99;;;9.61;53.99
60817;BME280;51921;51.518;-3.188;2022-09-17T02:52:24;102072.85;;;8.50;56.37
60817;BME280;51921;51.518;-3.188;2022-09-17T02:54:50;102073.69;;;9.44;54.75
60817;BME280;51921;51.518;-3.188;2022-09-17T02:57:14;102074.62;;;9.82;53.22
60817;BME280;51921;51.518;-3.188;2022-09-17T02:59:37;102073.07;;;9.99;52.60
60817;BME280;51921;51.518;-3.188;2022-09-17T03:02:02;102072.72;;;10.06;52.27
60817;BME280;51921;51.518;-3.188;2022-09-17T03:04:26;102071.33;;;9.60;53.49
60817;BME280;51921;51.518;-3.188;2022-09-17T03:06:51;102068.46;;;10.43;52.34
60817;BME280;51921;51.518;-3.188;2022-09-17T03:09:15;102071.63;;;10.14;53.68
60817;BME280;51921;51.518;-3.188;2022-09-17T03:11:41;102071.25;;;9.02;54.60
60817;BME280;51921;51.518;-3.188;2022-09-17T03:14:06;102064.81;;;9.35;56.28
60817;BME280;51921;51.518;-3.188;2022-09-17T03:16:32;102065.90;;;8.23;60.03
60817;BME280;51921;51.518;-3.188;2022-09-17T03:18:57;102071.36;;;7.21;62.22
60817;BME280;51921;51.518;-3.188;2022-09-17T03:21:23;102071.50;;;7.27;63.12
60817;BME280;51921;51.518;-3.188;2022-09-17T03:23:48;102069.91;;;8.37;61.67
60817;BME280;51921;51.518;-3.188;2022-09-17T03:26:14;102067.46;;;7.96;61.33
60817;BME280;51921;51.518;-3.188;2022-09-17T03:28:39;102067.08;;;6.97;63.36
60817;BME280;51921;51.518;-3.188;2022-09-17T03:31:05;102058.77;;;7.14;63.23
60817;BME280;51921;51.518;-3.188;2022-09-17T03:33:31;102058.04;;;9.34;58.34
60817;BME280;51921;51.518;-3.188;2022-09-17T03:35:56;102059.56;;;9.44;57.05
60817;BME280;51921;51.518;-3.188;2022-09-17T03:38:22;102057.33;;;8.85;57.04
60817;BME280;51921;51.518;-3.188;2022-09-17T03:40:56;102052.11;;;9.69;55.96
60817;BME280;51921;51.518;-3.188;2022-09-17T03:43:13;102052.23;;;9.91;54.15
60817;BME280;51921;51.518;-3.188;2022-09-17T03:45:38;102046.59;;;9.28;55.61
60817;BME280;51921;51.518;-3.188;2022-09-17T03:48:04;102045.83;;;8.81;56.76
60817;BME280;51921;51.518;-3.188;2022-09-17T03:50:30;102047.88;;;8.86;56.62
60817;BME280;51921;51.518;-3.188;2022-09-17T03:52:55;102046.54;;;8.78;56.79
60817;BME280;51921;51.518;-3.188;2022-09-17T03:55:20;102047.27;;;9.99;54.65
60817;BME280;51921;51.518;-3.188;2022-09-17T03:57:46;102048.17;;;9.66;54.47
60817;BME280;51921;51.518;-3.188;2022-09-17T04:00:12;102047.61;;;9.69;54.04
60817;BME280;51921;51.518;-3.188;2022-09-17T04:02:36;102043.75;;;8.56;56.40
60817;BME280;51921;51.518;-3.188;2022-09-17T04:05:02;102044.56;;;8.62;58.73
60817;BME280;51921;51.518;-3.188;2022-09-17T04:07:27;102041.10;;;9.03;57.19
60817;BME280;51921;51.518;-3.188;2022-09-17T04:09:53;102041.77;;;8.67;58.43
60817;BME280;51921;51.518;-3.188;2022-09-17T04:12:19;102044.75;;;9.19;56.73
60817;BME280;51921;51.518;-3.188;2022-09-17T04:14:44;102044.96;;;9.62;55.45
60817;BME280;51921;51.518;-3.188;2022-09-17T04:17:10;102041.88;;;8.73;57.91
60817;BME280;51921;51.518;-3.188;2022-09-17T04:19:35;102044.39;;;9.11;56.57
60817;BME280;51921;51.518;-3.188;2022-09-17T04:22:01;102043.57;;;9.31;55.74
60817;BME280;51921;51.518;-3.188;2022-09-17T04:24:26;102038.94;;;8.59;56.82
60817;BME280;51921;51.518;-3.188;2022-09-17T04:26:52;102037.37;;;8.62;56.41
60817;BME280;51921;51.518;-3.188;2022-09-17T04:29:17;102037.24;;;9.65;54.30
60817;BME280;51921;51.518;-3.188;2022-09-17T04:31:43;102038.12;;;9.79;53.74
60817;BME280;51921;51.518;-3.188;2022-09-17T04:34:08;102036.52;;;10.02;52.71
60817;BME280;51921;51.518;-3.188;2022-09-17T04:36:33;102040.84;;;9.55;53.95
60817;BME280;51921;51.518;-3.188;2022-09-17T04:38:59;102042.16;;;9.40;54.22
60817;BME280;51921;51.518;-3.188;2022-09-17T04:41:25;102042.88;;;8.66;56.90
60817;BME280;51921;51.518;-3.188;2022-09-17T04:43:50;102041.73;;;8.41;56.96
60817;BME280;51921;51.518;-3.188;2022-09-17T04:46:15;102047.78;;;8.90;56.52
60817;BME280;51921;51.518;-3.188;2022-09-17T04:48:41;102046.02;;;8.99;55.87
60817;BME280;51921;51.518;-3.188;2022-09-17T04:51:06;102047.84;;;9.13;55.81
60817;BME280;51921;51.518;-3.188;2022-09-17T04:53:32;102044.93;;;10.19;53.21
60817;BME280;51921;51.518;-3.188;2022-09-17T04:55:58;102045.02;;;10.40;52.81
60817;BME280;51921;51.518;-3.188;2022-09-17T04:58:23;102050.84;;;9.27;54.12
60817;BME280;51921;51.518;-3.188;2022-09-17T05:00:49;102051.69;;;9.78;53.68
60817;BME280;51921;51.518;-3.188;2022-09-17T05:03:14;102049.94;;;9.45;54.58
60817;BME280;51921;51.518;-3.188;2022-09-17T05:05:40;102046.64;;;8.50;56.38
60817;BME280;51921;51.518;-3.188;2022-09-17T05:08:05;102051.45;;;8.94;55.72
60817;BME280;51921;51.518;-3.188;2022-09-17T05:10:31;102046.57;;;8.41;56.58
60817;BME280;51921;51.518;-3.188;2022-09-17T05:12:56;102050.95;;;9.80;54.45
60817;BME280;51921;51.518;-3.188;2022-09-17T05:15:23;102048.16;;;10.39;53.19
60817;BME280;51921;51.518;-3.188;2022-09-17T05:17:48;102053.33;;;9.21;55.37
60817;BME280;51921;51.518;-3.188;2022-09-17T05:20:14;102053.66;;;9.63;54.47
60817;BME280;51921;51.518;-3.188;2022-09-17T05:22:41;102053.04;;;9.12;54.80
60817;BME280;51921;51.518;-3.188;2022-09-17T05:25:05;102053.45;;;9.07;55.48
60817;BME280;51921;51.518;-3.188;2022-09-17T05:27:30;102048.39;;;10.06;53.38
60817;BME280;51921;51.518;-3.188;2022-09-17T05:29:55;102045.58;;;9.90;53.37
60817;BME280;51921;51.518;-3.188;2022-09-17T05:32:21;102047.43;;;10.53;51.43
60817;BME280;51921;51.518;-3.188;2022-09-17T05:34:46;102048.61;;;10.77;50.70
60817;BME280;51921;51.518;-3.188;2022-09-17T05:37:12;102045.75;;;10.31;51.48
60817;BME280;51921;51.518;-3.188;2022-09-17T05:39:37;102050.04;;;9.73;52.26
60817;BME280;51921;51.518;-3.188;2022-09-17T05:42:03;102049.50;;;9.46;52.96
60817;BME280;51921;51.518;-3.188;2022-09-17T05:44:28;102049.27;;;9.55;53.81
60817;BME280;51921;51.518;-3.188;2022-09-17T05:46:54;102044.42;;;9.99;52.30
60817;BME280;51921;51.518;-3.188;2022-09-17T05:49:19;102043.02;;;8.87;54.05
60817;BME280;51921;51.518;-3.188;2022-09-17T05:51:45;102044.07;;;9.46;53.59
60817;BME280;51921;51.518;-3.188;2022-09-17T05:54:10;102041.40;;;9.24;53.97
60817;BME280;51921;51.518;-3.188;2022-09-17T05:56:36;102039.34;;;9.62;53.45
60817;BME280;51921;51.518;-3.188;2022-09-17T05:59:02;102045.94;;;9.41;53.13
60817;BME280;51921;51.518;-3.188;2022-09-17T06:01:27;102045.89;;;8.80;55.26
60817;BME280;51921;51.518;-3.188;2022-09-17T06:03:53;102043.68;;;9.91;52.88
60817;BME280;51921;51.518;-3.188;2022-09-17T06:06:18;102048.38;;;9.92;52.32
60817;BME280;51921;51.518;-3.188;2022-09-17T06:08:44;102051.65;;;8.96;55.06
60817;BME280;51921;51.518;-3.188;2022-09-17T06:11:09;102048.95;;;9.01;55.41
60817;BME280;51921;51.518;-3.188;2022-09-17T06:13:35;102048.10;;;8.42;55.81
60817;BME280;51921;51.518;-3.188;2022-09-17T06:16:01;102048.69;;;8.92;55.70
60817;BME280;51921;51.518;-3.188;2022-09-17T06:18:26;102044.78;;;9.05;55.55
60817;BME280;51921;51.518;-3.188;2022-09-17T06:20:52;102047.98;;;9.66;53.96
60817;BME280;51921;51.518;-3.188;2022-09-17T06:23:17;102051.80;;;9.61;54.09
60817;BME280;51921;51.518;-3.188;2022-09-17T06:25:42;102053.74;;;9.55;54.37
60817;BME280;51921;51.518;-3.188;2022-09-17T06:28:08;102054.35;;;9.20;55.18
60817;BME280;51921;51.518;-3.188;2022-09-17T06:30:35;102060.46;;;10.03;53.82
60817;BME280;51921;51.518;-3.188;2022-09-17T06:32:59;102058.75;;;10.22;53.70
60817;BME280;51921;51.518;-3.188;2022-09-17T06:35:24;102062.46;;;8.91;56.39
60817;BME280;51921;51.518;-3.188;2022-09-17T06:37:50;102064.51;;;9.82;54.26
60817;BME280;51921;51.518;-3.188;2022-09-17T06:40:16;102064.75;;;8.07;58.02
60817;BME280;51921;51.518;-3.188;2022-09-17T06:42:41;102066.19;;;8.32;58.09
60817;BME280;51921;51.518;-3.188;2022-09-17T06:45:07;102070.78;;;8.99;56.48
60817;BME280;51921;51.518;-3.188;2022-09-17T06:47:32;102071.09;;;9.01;56.42
60817;BME280;51921;51.518;-3.188;2022-09-17T06:49:58;102076.24;;;8.97;56.96
60817;BME280;51921;51.518;-3.188;2022-09-17T06:52:23;102075.59;;;9.42;55.15
60817;BME280;51921;51.518;-3.188;2022-09-17T06:54:49;102075.97;;;8.69;56.82
60817;BME280;51921;51.518;-3.188;2022-09-17T06:57:14;102075.67;;;8.33;58.31
60817;BME280;51921;51.518;-3.188;2022-09-17T06:59:40;102079.88;;;8.70;58.55
60817;BME280;51921;51.518;-3.188;2022-09-17T07:02:07;102083.26;;;8.25;58.82
60817;BME280;51921;51.518;-3.188;2022-09-17T07:04:31;102085.45;;;8.69;58.48
60817;BME280;51921;51.518;-3.188;2022-09-17T07:06:56;102091.51;;;9.24;57.14
60817;BME280;51921;51.518;-3.188;2022-09-17T07:09:22;102088.53;;;8.68;58.17
60817;BME280;51921;51.518;-3.188;2022-09-17T07:11:48;102086.66;;;9.58;57.21
60817;BME280;51921;51.518;-3.188;2022-09-17T07:14:13;102084.73;;;9.38;56.10
60817;BME280;51921;51.518;-3.188;2022-09-17T07:16:39;102089.72;;;9.51;56.24
60817;BME280;51921;51.518;-3.188;2022-09-17T07:19:04;102092.88;;;9.82;56.05
60817;BME280;51921;51.518;-3.188;2022-09-17T07:21:30;102093.10;;;8.73;58.80
60817;BME280;51921;51.518;-3.188;2022-09-17T07:23:55;102094.22;;;9.06;58.51
60817;BME280;51921;51.518;-3.188;2022-09-17T07:26:21;102101.12;;;9.40;57.07
60817;BME280;51921;51.518;-3.188;2022-09-17T07:28:46;102096.66;;;8.80;59.94
60817;BME280;51921;51.518;-3.188;2022-09-17T07:31:12;102088.61;;;9.05;60.51
60817;BME280;51921;51.518;-3.188;2022-09-17T07:33:38;102087.94;;;8.92;60.43
60817;BME280;51921;51.518;-3.188;2022-09-17T07:36:05;102085.23;;;9.42;58.82
60817;BME280;51921;51.518;-3.188;2022-09-17T07:38:29;102087.30;;;9.41;58.18
60817;BME280;51921;51.518;-3.188;2022-09-17T07:40:55;102083.24;;;9.48;58.41
60817;BME280;51921;51.518;-3.188;2022-09-17T07:43:19;102080.86;;;10.37;55.78
60817;BME280;51921;51.518;-3.188;2022-09-17T07:45:45;102084.08;;;10.03;56.17
60817;BME280;51921;51.518;-3.188;2022-09-17T07:48:10;102082.13;;;9.78;57.17
60817;BME280;51921;51.518;-3.188;2022-09-17T07:50:36;102078.30;;;9.54;57.04
60817;BME280;51921;51.518;-3.188;2022-09-17T07:53:01;102075.34;;;10.76;55.88
60817;BME280;51921;51.518;-3.188;2022-09-17T07:55:27;102082.82;;;10.27;57.90
60817;BME280;51921;51.518;-3.188;2022-09-17T07:57:52;102079.38;;;10.68;57.40
60817;BME280;51921;51.518;-3.188;2022-09-17T08:00:18;102079.41;;;10.46;57.48
60817;BME280;51921;51.518;-3.188;2022-09-17T08:02:43;102081.01;;;10.38;59.44
60817;BME280;51921;51.518;-3.188;2022-09-17T08:05:09;102079.91;;;9.31;61.76
60817;BME280;51921;51.518;-3.188;2022-09-17T08:07:35;102079.56;;;8.91;63.08
60817;BME280;51921;51.518;-3.188;2022-09-17T08:10:00;102081.87;;;9.67;61.83
60817;BME280;51921;51.518;-3.188;2022-09-17T08:12:26;102090.29;;;10.29;59.55
60817;BME280;51921;51.518;-3.188;2022-09-17T08:14:51;102091.14;;;10.25;59.12
60817;BME280;51921;51.518;-3.188;2022-09-17T08:17:17;102096.52;;;10.65;58.01
60817;BME280;51921;51.518;-3.188;2022-09-17T08:19:42;102094.64;;;10.72;56.13
60817;BME280;51921;51.518;-3.188;2022-09-17T08:22:08;102098.02;;;11.46;55.60
60817;BME280;51921;51.518;-3.188;2022-09-17T08:24:33;102103.02;;;11.04;55.88
60817;BME280;51921;51.518;-3.188;2022-09-17T08:26:59;102101.30;;;10.48;58.25
60817;BME280;51921;51.518;-3.188;2022-09-17T08:29:24;102105.16;;;11.59;55.06
60817;BME280;51921;51.518;-3.188;2022-09-17T08:31:50;102104.72;;;11.77;54.03
60817;BME280;51921;51.518;-3.188;2022-09-17T08:34:15;102106.36;;;11.55;54.59
60817;BME280;51921;51.518;-3.188;2022-09-17T08:36:41;102105.75;;;11.94;54.04
60817;BME280;51921;51.518;-3.188;2022-09-17T08:39:06;102104.63;;;13.12;51.41
60817;BME280;51921;51.518;-3.188;2022-09-17T08:41:42;102104.10;;;13.34;49.83
60817;BME280;51921;51.518;-3.188;2022-09-17T08:44:08;102106.01;;;13.69;48.90
60817;BME280;51921;51.518;-3.188;2022-09-17T08:46:23;102105.06;;;12.88;50.02
60817;BME280;51921;51.518;-3.188;2022-09-17T08:48:52;102109.35;;;14.62;45.82
60817;BME280;51921;51.518;-3.188;2022-09-17T08:51:23;102110.28;;;14.56;44.99
60817;BME280;51921;51.518;-3.188;2022-09-17T08:53:47;102113.45;;;13.66;46.71
60817;BME280;51921;51.518;-3.188;2022-09-17T08:56:09;102109.82;;;13.06;49.45
60817;BME280;51921;51.518;-3.188;2022-09-17T08:58:39;102112.12;;;13.62;48.60
60817;BME280;51921;51.518;-3.188;2022-09-17T09:01:03;102116.04;;;13.52;48.07
60817;BME280;51921;51.518;-3.188;2022-09-17T09:03:30;102111.11;;;13.44;48.69
60817;BME280;51921;51.518;-3.188;2022-09-17T09:05:47;102112.85;;;14.27;46.82
60817;BME280;51921;51.518;-3.188;2022-09-17T09:08:16;102110.88;;;12.80;48.98
60817;BME280;51921;51.518;-3.188;2022-09-17T09:10:43;102115.54;;;12.77;50.28
60817;BME280;51921;51.518;-3.188;2022-09-17T09:13:03;102118.76;;;13.76;49.07
60817;BME280;51921;51.518;-3.188;2022-09-17T09:15:33;102114.01;;;13.16;49.79
60817;BME280;51921;51.518;-3.188;2022-09-17T09:17:54;102115.83;;;13.63;47.74
60817;BME280;51921;51.518;-3.188;2022-09-17T09:20:24;102120.88;;;12.68;49.43
60817;BME280;51921;51.518;-3.188;2022-09-17T09:22:46;102120.78;;;13.61;47.58
60817;BME280;51921;51.518;-3.188;2022-09-17T09:25:18;102116.62;;;10.96;51.55
60817;BME280;51921;51.518;-3.188;2022-09-17T09:27:41;102116.89;;;10.95;51.49
60817;BME280;51921;51.518;-3.188;2022-09-17T09:30:03;102114.36;;;13.31;48.37
60817;BME280;51921;51.518;-3.188;2022-09-17T09:32:36;102112.41;;;12.01;49.35
60817;BME280;51921;51.518;-3.188;2022-09-17T09:34:54;102111.52;;;13.75;47.95
60817;BME280;51921;51.518;-3.188;2022-09-17T09:37:20;102114.83;;;14.30;46.38
60817;BME280;51921;51.518;-3.188;2022-09-17T09:39:44;102114.22;;;14.14;44.24
60817;BME280;51921;51.518;-3.188;2022-09-17T09:42:12;102107.61;;;14.27;44.15
60817;BME280;51921;51.518;-3.188;2022-09-17T09:44:33;102110.94;;;11.89;48.06
60817;BME280;51921;51.518;-3.188;2022-09-17T09:47:09;102110.75;;;11.58;47.99
60817;BME280;51921;51.518;-3.188;2022-09-17T09:49:35;102114.02;;;14.35;45.02
60817;BME280;51921;51.518;-3.188;2022-09-17T09:52:00;102110.38;;;11.85;48.83
60817;BME280;51921;51.518;-3.188;2022-09-17T09:54:26;102109.53;;;13.06;46.98
60817;BME280;51921;51.518;-3.188;2022-09-17T09:56:50;102113.49;;;13.82;45.84
60817;BME280;51921;51.518;-3.188;2022-09-17T09:59:06;102114.68;;;12.74;46.70
60817;BME280;51921;51.518;-3.188;2022-09-17T10:01:33;102119.51;;;11.09;49.32
60817;BME280;51921;51.518;-3.188;2022-09-17T10:03:56;102115.86;;;12.63;48.32
60817;BME280;51921;51.518;-3.188;2022-09-17T10:06:22;102114.04;;;14.21;44.80
60817;BME280;51921;51.518;-3.188;2022-09-17T10:11:20;102113.35;;;13.12;48.80
60817;BME280;51921;51.518;-3.188;2022-09-17T10:13:39;102114.19;;;14.36;44.09
60817;BME280;51921;51.518;-3.188;2022-09-17T10:16:14;102110.70;;;13.86;45.70
60817;BME280;51921;51.518;-3.188;2022-09-17T10:18:29;102106.81;;;14.12;44.43
60817;BME280;51921;51.518;-3.188;2022-09-17T10:20:57;102108.49;;;14.30;45.81
60817;BME280;51921;51.518;-3.188;2022-09-17T10:23:20;102102.59;;;14.11;45.41
60817;BME280;51921;51.518;-3.188;2022-09-17T10:25:45;102103.39;;;13.80;45.28
60817;BME280;51921;51.518;-3.188;2022-09-17T10:30:36;102095.81;;;13.80;44.84
60817;BME280;51921;51.518;-3.188;2022-09-17T10:33:14;102100.11;;;14.47;46.24
60817;BME280;51921;51.518;-3.188;2022-09-17T10:35:28;102099.77;;;14.51;44.31
60817;BME280;51921;51.518;-3.188;2022-09-17T10:37:53;102094.67;;;15.25;41.78
60817;BME280;51921;51.518;-3.188;2022-09-17T10:40:27;102093.52;;;15.67;41.01
60817;BME280;51921;51.518;-3.188;2022-09-17T10:42:43;102104.18;;;15.13;41.20
60817;BME280;51921;51.518;-3.188;2022-09-17T10:45:22;102102.76;;;15.31;41.36
60817;BME280;51921;51.518;-3.188;2022-09-17T10:47:36;102101.97;;;15.53;41.74
60817;BME280;51921;51.518;-3.188;2022-09-17T10:50:00;102101.76;;;15.02;40.95
60817;BME280;51921;51.518;-3.188;2022-09-17T10:52:26;102101.31;;;12.92;43.78
60817;BME280;51921;51.518;-3.188;2022-09-17T10:55:06;102099.41;;;14.32;44.07
60817;BME280;51921;51.518;-3.188;2022-09-17T10:57:20;102096.95;;;13.21;44.03
60817;BME280;51921;51.518;-3.188;2022-09-17T10:59:52;102099.43;;;13.25;44.71
60817;BME280;51921;51.518;-3.188;2022-09-17T11:02:24;102099.66;;;14.01;41.95
60817;BME280;51921;51.518;-3.188;2022-09-17T11:04:41;102093.19;;;13.39;43.32
60817;BME280;51921;51.518;-3.188;2022-09-17T11:07:20;102090.14;;;14.97;41.30
60817;BME280;51921;51.518;-3.188;2022-09-17T11:09:31;102083.61;;;16.11;40.04
60817;BME280;51921;51.518;-3.188;2022-09-17T11:11:56;102083.65;;;16.21;39.84
60817;BME280;51921;51.518;-3.188;2022-09-17T11:14:23;102083.91;;;15.38;39.40
60817;BME280;51921;51.518;-3.188;2022-09-17T11:16:43;102084.08;;;14.54;40.15
60817;BME280;51921;51.518;-3.188;2022-09-17T11:19:13;102079.02;;;15.18;39.37
60817;BME280;51921;51.518;-3.188;2022-09-17T11:21:37;102080.32;;;13.10;44.24
60817;BME280;51921;51.518;-3.188;2022-09-17T11:26:29;102070.96;;;12.71;41.99
60817;BME280;51921;51.518;-3.188;2022-09-17T11:28:52;102067.93;;;15.50;39.94
60817;BME280;51921;51.518;-3.188;2022-09-17T11:31:20;102065.41;;;16.18;37.02
60817;BME280;51921;51.518;-3.188;2022-09-17T11:33:54;102061.23;;;11.58;44.63
60817;BME280;51921;51.518;-3.188;2022-09-17T11:36:04;102056.87;;;12.97;43.54
60817;BME280;51921;51.518;-3.188;2022-09-17T11:38:32;102054.95;;;12.27;43.74
60817;BME280;51921;51.518;-3.188;2022-09-17T11:40:58;102051.35;;;14.94;39.77
60817;BME280;51921;51.518;-3.188;2022-09-17T11:43:24;102044.32;;;14.83;41.64
60817;BME280;51921;51.518;-3.188;2022-09-17T11:45:53;102038.92;;;14.16;43.57
60817;BME280;51921;51.518;-3.188;2022-09-17T11:48:12;102034.24;;;16.04;37.63
60817;BME280;51921;51.518;-3.188;2022-09-17T11:50:38;102032.57;;;15.88;40.10
60817;BME280;51921;51.518;-3.188;2022-09-17T11:53:05;102033.99;;;15.89;37.58
60817;BME280;51921;51.518;-3.188;2022-09-17T11:55:29;102033.54;;;13.02;42.54
60817;BME280;51921;51.518;-3.188;2022-09-17T11:57:51;102034.89;;;15.40;40.20
60817;BME280;51921;51.518;-3.188;2022-09-17T12:00:17;102035.68;;;14.15;41.89
60817;BME280;51921;51.518;-3.188;2022-09-17T12:02:47;102034.84;;;14.24;41.68
60817;BME280;51921;51.518;-3.188;2022-09-17T12:05:09;102034.00;;;17.07;36.70
60817;BME280;51921;51.518;-3.188;2022-09-17T12:07:39;102028.64;;;16.83;37.48
60817;BME280;51921;51.518;-3.188;2022-09-17T12:10:00;102031.94;;;16.95;37.18
60817;BME280;51921;51.518;-3.188;2022-09-17T12:12:23;102032.23;;;17.17;35.53
60817;BME280;51921;51.518;-3.188;2022-09-17T12:14:50;102040.16;;;15.12;38.35
60817;BME280;51921;51.518;-3.188;2022-09-17T12:17:19;102040.90;;;15.87;37.49
60817;BME280;51921;51.518;-3.188;2022-09-17T12:19:42;102031.94;;;17.70;35.78
60817;BME280;51921;51.518;-3.188;2022-09-17T12:22:06;102029.72;;;18.35;34.97
60817;BME280;51921;51.518;-3.188;2022-09-17T12:24:30;102025.54;;;17.42;35.01
60817;BME280;51921;51.518;-3.188;2022-09-17T12:27:03;102023.38;;;16.18;35.50
60817;BME280;51921;51.518;-3.188;2022-09-17T12:29:36;102020.48;;;15.05;36.98
60817;BME280;51921;51.518;-3.188;2022-09-17T12:31:51;102017.36;;;14.79;38.35
60817;BME280;51921;51.518;-3.188;2022-09-17T12:34:23;102015.13;;;14.60;40.16
60817;BME280;51921;51.518;-3.188;2022-09-17T12:36:41;102009.27;;;16.76;37.49
60817;BME280;51921;51.518;-3.188;2022-09-17T12:39:13;102003.80;;;17.33;37.27
60817;BME280;51921;51.518;-3.188;2022-09-17T12:41:32;102000.93;;;15.60;35.88
60817;BME280;51921;51.518;-3.188;2022-09-17T12:44:03;102002.70;;;14.76;38.57
60817;BME280;51921;51.518;-3.188;2022-09-17T12:46:27;101999.11;;;16.63;35.60